createdAt,value
2018-08-14T00:00:58.169Z,20.20
2018-08-14T00:03:03.389Z,20.10
2018-08-14T00:05:08.653Z,20.10
2018-08-14T00:07:15.072Z,20.00
2018-08-14T00:09:18.990Z,19.90
2018-08-14T00:11:22.880Z,20.00
2018-08-14T00:13:27.412Z,20.00
2018-08-14T00:15:31.316Z,20.10
2018-08-14T00:17:35.219Z,20.10
2018-08-14T00:19:39.392Z,20.20
2018-08-14T00:21:43.251Z,20.20
2018-08-14T00:23:49.211Z,20.20
2018-08-14T00:25:53.774Z,20.20
2018-08-14T00:27:57.648Z,20.20
2018-08-14T00:30:03.497Z,20.30
2018-08-14T00:32:07.747Z,20.30
2018-08-14T00:34:12.983Z,20.20
2018-08-14T00:36:16.921Z,20.00
2018-08-14T00:38:22.233Z,20.00
2018-08-14T00:40:26.447Z,19.90
2018-08-14T00:42:31.005Z,20.10
2018-08-14T00:44:34.945Z,20.00
2018-08-14T00:46:38.896Z,20.20
2018-08-14T00:48:42.808Z,20.30
2018-08-14T00:50:47.002Z,20.20
2018-08-14T00:52:50.876Z,20.30
2018-08-14T00:54:55.716Z,20.40
2018-08-14T00:57:00.088Z,20.50
2018-08-14T00:59:03.962Z,20.40
2018-08-14T01:01:08.730Z,20.40
2018-08-14T01:03:14.614Z,20.50
2018-08-14T01:05:18.864Z,20.60
2018-08-14T01:07:24.049Z,20.60
2018-08-14T01:09:28.238Z,20.50
2018-08-14T01:11:32.165Z,20.60
2018-08-14T01:13:36.096Z,20.60
2018-08-14T01:15:40.419Z,20.50
2018-08-14T01:17:45.472Z,20.60
2018-08-14T01:19:49.353Z,20.50
2018-08-14T01:21:54.624Z,20.50
2018-08-14T01:23:59.116Z,20.50
2018-08-14T01:26:03.011Z,20.50
2018-08-14T01:28:07.343Z,20.40
2018-08-14T01:30:19.084Z,20.40
2018-08-14T01:32:22.977Z,20.30
2018-08-14T01:34:26.973Z,20.30
2018-08-14T01:36:30.999Z,20.20
2018-08-14T01:38:34.962Z,20.20
2018-08-14T01:40:39.222Z,20.10
2018-08-14T01:42:43.132Z,20.10
2018-08-14T01:44:47.080Z,20.00
2018-08-14T01:46:55.118Z,19.90
2018-08-14T01:48:58.947Z,19.90
2018-08-14T01:51:02.847Z,19.90
2018-08-14T01:53:07.165Z,19.80
2018-08-14T01:55:11.076Z,19.80
2018-08-14T01:57:15.026Z,19.80
2018-08-14T01:59:19.337Z,19.80
2018-08-14T02:01:23.356Z,19.70
2018-08-14T02:03:27.621Z,19.60
2018-08-14T02:05:32.009Z,19.60
2018-08-14T02:07:36.297Z,19.50
2018-08-14T02:09:43.107Z,19.50
2018-08-14T02:11:49.584Z,19.50
2018-08-14T02:13:53.490Z,19.70
2018-08-14T02:15:57.400Z,19.80
2018-08-14T02:18:01.916Z,19.80
2018-08-14T02:20:07.357Z,19.80
2018-08-14T02:22:11.969Z,19.80
2018-08-14T02:24:16.496Z,19.80
2018-08-14T02:26:22.080Z,19.80
2018-08-14T02:28:26.033Z,19.70
2018-08-14T02:30:30.415Z,19.70
2018-08-14T02:32:34.987Z,19.70
2018-08-14T02:34:38.994Z,19.70
2018-08-14T02:36:43.226Z,19.60
2018-08-14T02:38:48.637Z,19.70
2018-08-14T02:40:52.606Z,19.70
2018-08-14T02:42:57.678Z,19.60
2018-08-14T02:45:01.626Z,19.70
2018-08-14T02:47:07.332Z,19.70
2018-08-14T02:49:12.516Z,19.60
2018-08-14T02:51:16.454Z,19.70
2018-08-14T02:53:20.429Z,19.70
2018-08-14T02:55:24.371Z,19.70
2018-08-14T02:57:28.320Z,19.70
2018-08-14T02:59:32.327Z,19.70
2018-08-14T03:01:37.706Z,19.80
2018-08-14T03:03:41.585Z,19.80
2018-08-14T03:05:45.577Z,19.80
2018-08-14T03:07:49.867Z,19.90
2018-08-14T03:09:53.818Z,19.90
2018-08-14T03:11:57.814Z,20.00
2018-08-14T03:14:02.062Z,20.00
2018-08-14T03:16:05.972Z,20.00
2018-08-14T03:18:09.916Z,20.00
2018-08-14T03:20:13.865Z,20.00
2018-08-14T03:22:17.802Z,20.00
2018-08-14T03:24:21.799Z,20.00
2018-08-14T03:26:25.771Z,19.90
2018-08-14T03:28:29.748Z,19.80
2018-08-14T03:30:33.722Z,19.70
2018-08-14T03:32:38.134Z,19.60
2018-08-14T03:34:42.139Z,19.60
2018-08-14T03:36:46.466Z,19.60
2018-08-14T03:38:51.838Z,19.50
2018-08-14T03:40:56.683Z,19.50
2018-08-14T03:43:00.679Z,19.50
2018-08-14T03:45:12.616Z,19.30
2018-08-14T03:47:17.161Z,19.30
2018-08-14T03:49:21.072Z,19.30
2018-08-14T03:51:25.320Z,19.40
2018-08-14T03:53:29.926Z,19.30
2018-08-14T03:55:34.166Z,19.30
2018-08-14T03:57:38.511Z,19.30
2018-08-14T03:59:42.524Z,19.30
2018-08-14T04:01:46.490Z,19.30
2018-08-14T04:03:50.751Z,19.30
2018-08-14T04:05:54.745Z,19.30
2018-08-14T04:07:59.144Z,19.30
2018-08-14T04:10:03.472Z,19.40
2018-08-14T04:12:07.395Z,19.30
2018-08-14T04:14:11.841Z,19.30
2018-08-14T04:16:16.210Z,19.30
2018-08-14T04:18:20.141Z,19.30
2018-08-14T04:20:24.085Z,19.20
2018-08-14T04:22:28.415Z,19.10
2018-08-14T04:24:32.361Z,19.10
2018-08-14T04:26:36.347Z,19.00
2018-08-14T04:28:40.667Z,19.10
2018-08-14T04:30:46.551Z,19.10
2018-08-14T04:32:50.603Z,19.00
2018-08-14T04:34:54.945Z,19.10
2018-08-14T04:36:58.873Z,19.10
2018-08-14T04:39:05.001Z,19.10
2018-08-14T04:41:08.943Z,19.10
2018-08-14T04:43:12.934Z,19.10
2018-08-14T04:45:16.927Z,19.10
2018-08-14T04:47:21.229Z,19.00
2018-08-14T04:49:26.165Z,19.00
2018-08-14T04:51:30.156Z,19.00
2018-08-14T04:53:35.707Z,19.10
2018-08-14T04:55:39.765Z,19.10
2018-08-14T04:57:43.711Z,19.10
2018-08-14T04:59:49.035Z,19.20
2018-08-14T05:01:52.994Z,19.20
2018-08-14T05:03:59.056Z,19.20
2018-08-14T05:06:03.114Z,19.30
2018-08-14T05:08:07.530Z,19.50
2018-08-14T05:10:14.347Z,19.60
2018-08-14T05:12:18.614Z,19.80
2018-08-14T05:14:22.619Z,20.00
2018-08-14T05:16:27.040Z,20.20
2018-08-14T05:18:31.565Z,20.30
2018-08-14T05:20:35.481Z,20.50
2018-08-14T05:22:40.135Z,20.50
2018-08-14T05:24:45.300Z,20.50
2018-08-14T05:26:49.239Z,20.60
2018-08-14T05:28:53.342Z,20.60
2018-08-14T05:30:57.277Z,20.60
2018-08-14T05:33:01.265Z,20.70
2018-08-14T05:35:06.521Z,20.70
2018-08-14T05:37:11.906Z,20.70
2018-08-14T05:39:16.704Z,20.70
2018-08-14T05:41:21.663Z,20.60
2018-08-14T05:43:27.054Z,20.60
2018-08-14T05:45:31.131Z,20.60
2018-08-14T05:47:35.115Z,20.70
2018-08-14T05:49:40.736Z,20.60
2018-08-14T05:51:45.650Z,20.50
2018-08-14T05:53:49.557Z,20.60
2018-08-14T05:55:53.569Z,20.60
2018-08-14T05:57:57.519Z,20.60
2018-08-14T06:00:01.523Z,20.70
2018-08-14T06:02:05.510Z,20.70
2018-08-14T06:04:09.925Z,20.70
2018-08-14T06:06:15.127Z,20.80
2018-08-14T06:08:19.641Z,20.80
2018-08-14T06:10:23.786Z,20.80
2018-08-14T06:12:27.690Z,20.80
2018-08-14T06:14:32.261Z,20.70
2018-08-14T06:16:42.433Z,20.80
2018-08-14T06:18:47.412Z,20.90
2018-08-14T06:20:51.732Z,20.90
2018-08-14T06:22:55.866Z,20.90
2018-08-14T06:25:01.314Z,21.00
2018-08-14T06:27:05.599Z,21.00
2018-08-14T06:29:09.616Z,21.10
2018-08-14T06:31:14.376Z,21.00
2018-08-14T06:33:19.987Z,21.00
2018-08-14T06:35:25.349Z,21.00
2018-08-14T06:37:30.711Z,21.00
2018-08-14T06:39:36.130Z,21.00
2018-08-14T06:41:40.057Z,21.00
2018-08-14T06:43:44.301Z,21.00
2018-08-14T06:45:50.685Z,21.10
2018-08-14T06:47:54.615Z,21.10
2018-08-14T06:50:00.257Z,21.10
2018-08-14T06:52:05.645Z,21.20
2018-08-14T06:54:09.753Z,21.30
2018-08-14T06:56:18.626Z,21.50
2018-08-14T06:58:24.763Z,21.90
2018-08-14T07:00:36.428Z,22.40
2018-08-14T07:02:45.784Z,22.70
2018-08-14T07:04:50.320Z,22.80
2018-08-14T07:06:55.205Z,23.10
2018-08-14T07:08:59.772Z,23.30
2018-08-14T07:11:04.327Z,23.30
2018-08-14T07:13:08.610Z,23.30
2018-08-14T07:15:25.144Z,23.30
2018-08-14T07:17:29.645Z,23.10
2018-08-14T07:19:35.406Z,23.20
2018-08-14T07:21:40.229Z,23.30
2018-08-14T07:23:45.226Z,23.30
2018-08-14T07:25:50.305Z,23.30
2018-08-14T07:27:58.066Z,23.30
2018-08-14T07:30:05.093Z,23.20
2018-08-14T07:32:11.397Z,23.40
2018-08-14T07:34:16.307Z,23.50
2018-08-14T07:36:20.536Z,23.70
2018-08-14T07:38:24.634Z,23.90
2018-08-14T07:40:28.865Z,24.00
2018-08-14T07:42:40.416Z,24.00
2018-08-14T07:44:44.331Z,24.30
2018-08-14T07:46:48.774Z,24.30
2018-08-14T07:48:55.137Z,24.30
2018-08-14T07:50:59.090Z,24.30
2018-08-14T07:53:05.387Z,24.40
2018-08-14T07:55:15.760Z,24.40
2018-08-14T07:57:19.782Z,24.20
2018-08-14T07:59:24.485Z,24.10
2018-08-14T08:01:28.547Z,24.00
2018-08-14T08:03:32.598Z,24.00
2018-08-14T08:05:36.528Z,23.90
2018-08-14T08:07:41.426Z,23.90
2018-08-14T08:09:47.538Z,23.80
2018-08-14T08:11:52.474Z,23.70
2018-08-14T08:13:57.694Z,23.90
2018-08-14T08:16:06.033Z,24.20
2018-08-14T08:18:10.331Z,24.20
2018-08-14T08:20:20.994Z,24.20
2018-08-14T08:22:24.959Z,24.10
2018-08-14T08:24:30.310Z,24.20
2018-08-14T08:26:34.928Z,24.40
2018-08-14T08:28:39.479Z,24.40
2018-08-14T08:30:44.175Z,24.60
2018-08-14T08:32:48.509Z,24.80
2018-08-14T08:34:53.330Z,25.30
2018-08-14T08:36:57.246Z,25.60
2018-08-14T08:39:06.407Z,25.70
2018-08-14T08:45:48.952Z,26.20
2018-08-14T08:48:20.456Z,26.40
2018-08-14T08:50:24.648Z,26.40
2018-08-14T08:52:29.627Z,26.10
2018-08-14T08:54:37.633Z,26.20
2018-08-14T08:56:46.837Z,26.20
2018-08-14T08:58:56.698Z,26.30
2018-08-14T09:01:00.730Z,26.20
2018-08-14T09:03:06.447Z,26.30
2018-08-14T09:05:14.498Z,26.20
2018-08-14T09:09:29.400Z,26.00
2018-08-14T09:11:34.354Z,25.90
2018-08-14T09:13:39.271Z,25.80
2018-08-14T09:15:44.492Z,25.70
2018-08-14T09:17:52.265Z,25.60
2018-08-14T09:19:56.406Z,25.60
2018-08-14T09:22:01.855Z,25.50
2018-08-14T09:24:07.569Z,25.60
2018-08-14T09:26:11.638Z,25.70
2018-08-14T09:28:17.236Z,25.70
2018-08-14T09:30:27.452Z,25.70
2018-08-14T09:32:36.420Z,25.70
2018-08-14T09:34:44.261Z,25.70
2018-08-14T09:36:51.534Z,25.60
2018-08-14T09:38:56.447Z,25.40
2018-08-14T09:41:00.621Z,25.30
2018-08-14T09:43:06.445Z,25.20
2018-08-14T09:45:13.930Z,25.20
2018-08-14T09:47:17.879Z,25.20
2018-08-14T09:49:25.721Z,25.20
2018-08-14T09:51:31.018Z,25.30
2018-08-14T09:53:39.484Z,25.20
2018-08-14T09:55:47.095Z,25.20
2018-08-14T09:58:02.418Z,25.30
2018-08-14T10:00:24.939Z,25.10
2018-08-14T10:02:47.004Z,24.80
2018-08-14T10:04:58.980Z,24.80
2018-08-14T10:07:09.188Z,24.90
2018-08-14T10:09:15.585Z,25.00
2018-08-14T10:11:19.957Z,25.00
2018-08-14T10:13:25.393Z,25.00
2018-08-14T10:15:36.586Z,24.90
2018-08-14T10:17:40.564Z,24.80
2018-08-14T10:19:44.436Z,24.80
2018-08-14T10:21:49.525Z,24.80
2018-08-14T10:23:54.977Z,24.80
2018-08-14T10:26:02.604Z,24.80
2018-08-14T10:28:12.103Z,24.80
2018-08-14T10:30:17.706Z,24.90
2018-08-14T10:32:22.365Z,25.10
2018-08-14T10:34:29.635Z,25.50
2018-08-14T10:36:36.336Z,25.80
2018-08-14T10:38:41.659Z,26.10
2018-08-14T10:40:49.776Z,26.20
2018-08-14T10:42:55.255Z,26.50
2018-08-14T10:45:06.534Z,26.90
2018-08-14T10:47:16.091Z,27.40
2018-08-14T10:49:20.144Z,27.80
2018-08-14T10:51:24.686Z,28.30
2018-08-14T10:53:29.543Z,28.70
2018-08-14T10:55:35.971Z,28.80
2018-08-14T10:57:45.077Z,28.80
2018-08-14T10:59:51.604Z,28.80
2018-08-14T11:01:56.334Z,28.40
2018-08-14T11:04:08.184Z,28.40
2018-08-14T11:06:14.254Z,28.60
2018-08-14T11:08:18.193Z,28.80
2018-08-14T11:10:28.820Z,28.80
2018-08-14T11:12:35.044Z,28.90
2018-08-14T11:14:42.481Z,28.70
2018-08-14T11:16:54.941Z,28.60
2018-08-14T11:19:07.323Z,28.70
2018-08-14T11:21:15.085Z,28.70
2018-08-14T11:23:23.239Z,28.50
2018-08-14T11:25:29.759Z,28.30
2018-08-14T11:27:37.676Z,28.30
2018-08-14T11:29:43.419Z,28.30
2018-08-14T11:31:47.491Z,28.40
2018-08-14T11:33:52.146Z,28.40
2018-08-14T11:36:04.295Z,28.20
2018-08-14T11:38:09.980Z,28.10
2018-08-14T11:40:18.279Z,27.90
2018-08-14T11:42:30.140Z,28.00
2018-08-14T11:44:34.305Z,28.40
2018-08-14T11:46:40.526Z,28.80
2018-08-14T11:48:47.258Z,29.30
2018-08-14T11:50:53.563Z,29.50
2018-08-14T11:52:57.577Z,29.50
2018-08-14T11:55:04.774Z,29.20
2018-08-14T11:57:08.857Z,29.00
2018-08-14T11:59:14.161Z,29.00
2018-08-14T12:01:20.005Z,29.20
2018-08-14T12:03:25.217Z,29.70
2018-08-14T12:05:29.979Z,29.80
2018-08-14T12:07:33.941Z,29.60
2018-08-14T12:09:40.008Z,29.60
2018-08-14T12:11:44.372Z,29.60
2018-08-14T12:13:50.299Z,29.30
2018-08-14T12:15:58.665Z,29.20
2018-08-14T12:18:03.328Z,29.00
2018-08-14T12:20:10.085Z,28.90
2018-08-14T12:22:18.204Z,28.90
2018-08-14T12:24:25.332Z,29.20
2018-08-14T12:26:30.326Z,29.50
2018-08-14T12:28:34.647Z,29.70
2018-08-14T12:30:40.650Z,30.00
2018-08-14T12:32:47.431Z,30.20
2018-08-14T12:34:52.992Z,30.40
2018-08-14T12:36:58.397Z,30.60
2018-08-14T12:39:03.289Z,30.60
2018-08-14T12:41:08.723Z,30.20
2018-08-14T12:43:14.508Z,29.60
2018-08-14T12:45:23.818Z,29.40
2018-08-14T12:47:31.191Z,28.90
2018-08-14T12:49:35.713Z,28.40
2018-08-14T12:51:40.332Z,28.20
2018-08-14T12:53:44.494Z,28.10
2018-08-14T12:55:51.830Z,28.20
2018-08-14T12:57:58.310Z,28.30
2018-08-14T13:00:08.085Z,28.30
2018-08-14T13:02:14.257Z,28.40
2018-08-14T13:04:20.069Z,28.50
2018-08-14T13:06:24.133Z,28.60
2018-08-14T13:08:28.219Z,28.60
2018-08-14T13:10:34.489Z,28.30
2018-08-14T13:12:39.461Z,28.30
2018-08-14T13:14:47.073Z,28.30
2018-08-14T13:16:53.224Z,28.40
2018-08-14T13:18:57.954Z,28.40
2018-08-14T13:21:02.021Z,28.60
2018-08-14T13:23:07.962Z,28.60
2018-08-14T13:25:13.938Z,28.80
2018-08-14T13:27:19.001Z,29.00
2018-08-14T13:29:22.974Z,29.00
2018-08-14T13:31:28.316Z,29.10
2018-08-14T13:33:32.796Z,29.30
2018-08-14T13:35:38.890Z,29.70
2018-08-14T13:37:43.906Z,29.50
2018-08-14T13:39:48.595Z,29.50
2018-08-14T13:41:52.828Z,29.50
2018-08-14T13:44:04.088Z,29.50
2018-08-14T13:46:13.520Z,29.50
2018-08-14T13:48:25.325Z,29.50
2018-08-14T13:50:30.709Z,30.00
2018-08-14T13:52:37.246Z,30.40
2018-08-14T13:54:49.626Z,30.80
2018-08-14T13:56:58.236Z,30.80
2018-08-14T13:59:03.218Z,30.70
2018-08-14T14:01:09.774Z,30.90
2018-08-14T14:03:15.548Z,31.20
2018-08-14T14:05:24.509Z,31.40
2018-08-14T14:07:29.912Z,31.60
2018-08-14T14:09:33.955Z,31.90
2018-08-14T14:11:38.945Z,32.30
2018-08-14T14:13:43.671Z,32.60
2018-08-14T14:15:47.658Z,33.00
2018-08-14T14:17:52.683Z,33.30
2018-08-14T14:20:01.414Z,33.20
2018-08-14T14:22:07.130Z,33.00
2018-08-14T14:24:12.069Z,32.70
2018-08-14T14:26:19.129Z,32.30
2018-08-14T14:28:24.401Z,31.80
2018-08-14T14:30:28.797Z,31.40
2018-08-14T14:32:38.659Z,31.20
2018-08-14T14:34:44.600Z,31.00
2018-08-14T14:36:49.489Z,31.00
2018-08-14T14:38:54.095Z,30.90
2018-08-14T14:41:00.450Z,30.80
2018-08-14T14:43:05.613Z,30.90
2018-08-14T14:45:21.197Z,30.80
2018-08-14T14:47:31.102Z,30.80
2018-08-14T14:49:35.198Z,30.90
2018-08-14T14:51:39.557Z,30.70
2018-08-14T14:53:47.627Z,30.80
2018-08-14T14:55:51.678Z,30.70
2018-08-14T14:57:57.778Z,30.80
2018-08-14T15:00:04.585Z,30.40
2018-08-14T15:02:09.962Z,30.10
2018-08-14T15:04:13.966Z,30.00
2018-08-14T15:06:19.613Z,29.80
2018-08-14T15:08:29.159Z,30.00
2018-08-14T15:10:33.521Z,30.00
2018-08-14T15:12:37.689Z,30.00
2018-08-14T15:14:41.678Z,30.10
2018-08-14T15:16:50.178Z,30.40
2018-08-14T15:19:16.019Z,30.30
2018-08-14T15:21:20.739Z,30.30
2018-08-14T15:23:25.266Z,30.50
2018-08-14T15:25:30.818Z,31.10
2018-08-14T15:27:35.739Z,31.70
2018-08-14T15:29:42.397Z,31.40
2018-08-14T15:31:53.537Z,30.90
2018-08-14T15:34:01.472Z,30.60
2018-08-14T15:36:06.656Z,30.30
2018-08-14T15:38:11.485Z,30.00
2018-08-14T15:40:16.362Z,30.10
2018-08-14T15:42:21.503Z,30.10
2018-08-14T15:44:27.500Z,30.10
2018-08-14T15:46:32.148Z,29.90
2018-08-14T15:48:37.356Z,29.80
2018-08-14T15:50:41.520Z,29.80
2018-08-14T15:52:46.883Z,29.60
2018-08-14T15:54:51.909Z,29.50
2018-08-14T15:56:57.099Z,29.60
2018-08-14T15:59:02.859Z,29.90
2018-08-14T16:01:08.960Z,30.20
2018-08-14T16:03:12.873Z,30.50
2018-08-14T16:05:18.131Z,31.00
2018-08-14T16:07:22.962Z,31.50
2018-08-14T16:09:27.593Z,31.80
2018-08-14T16:11:33.067Z,32.10
2018-08-14T16:13:38.007Z,31.90
2018-08-14T16:15:42.078Z,32.00
2018-08-14T16:17:45.918Z,31.80
2018-08-14T16:19:50.540Z,31.30
2018-08-14T16:21:55.460Z,30.60
2018-08-14T16:23:59.368Z,30.60
2018-08-14T16:26:05.855Z,30.30
2018-08-14T16:28:10.187Z,30.20
2018-08-14T16:30:16.768Z,29.80
2018-08-14T16:32:21.603Z,29.40
2018-08-14T16:34:28.992Z,29.20
2018-08-14T16:36:32.972Z,29.20
2018-08-14T16:38:37.324Z,29.20
2018-08-14T16:40:42.560Z,29.50
2018-08-14T16:42:48.384Z,30.10
2018-08-14T16:44:53.856Z,30.50
2018-08-14T16:46:57.738Z,30.50
2018-08-14T16:49:03.552Z,30.40
2018-08-14T16:51:08.760Z,30.20
2018-08-14T16:53:14.052Z,30.20
2018-08-14T16:55:18.081Z,30.10
2018-08-14T16:57:23.566Z,30.40
2018-08-14T16:59:28.733Z,30.60
2018-08-14T17:01:34.461Z,30.40
2018-08-14T17:03:38.753Z,30.40
2018-08-14T17:05:44.833Z,30.30
2018-08-14T17:07:51.421Z,30.10
2018-08-14T17:09:56.012Z,29.80
2018-08-14T17:12:02.722Z,29.70
2018-08-14T17:14:09.852Z,29.40
2018-08-14T17:16:15.304Z,29.20
2018-08-14T17:18:20.332Z,29.00
2018-08-14T17:20:23.026Z,29.00
2018-08-14T17:22:28.901Z,28.90
2018-08-14T17:24:32.929Z,28.80
2018-08-14T17:26:36.931Z,28.80
2018-08-14T17:28:43.230Z,28.90
2018-08-14T17:30:48.834Z,28.80
2018-08-14T17:32:54.279Z,28.80
2018-08-14T17:34:59.167Z,28.70
2018-08-14T17:37:04.780Z,28.50
2018-08-14T17:39:11.187Z,28.50
2018-08-14T17:41:27.655Z,28.20
2018-08-14T17:43:36.779Z,28.10
2018-08-14T17:45:53.292Z,28.10
2018-08-14T17:48:14.353Z,28.20
2018-08-14T17:50:39.020Z,28.20
2018-08-14T17:52:51.752Z,28.20
2018-08-14T17:55:08.291Z,28.20
2018-08-14T17:57:15.426Z,28.20
2018-08-14T17:59:36.456Z,28.20
2018-08-14T18:02:10.439Z,28.20
2018-08-14T18:04:19.162Z,27.80
2018-08-14T18:06:44.395Z,27.30
2018-08-14T18:08:58.814Z,26.70
2018-08-14T18:11:42.918Z,26.00
2018-08-14T18:14:01.215Z,25.70
2018-08-14T18:16:14.278Z,25.60
2018-08-14T18:18:41.280Z,25.60
2018-08-14T18:20:59.903Z,25.50
2018-08-14T18:23:17.541Z,25.50
2018-08-14T18:25:41.301Z,25.40
2018-08-14T18:27:55.699Z,25.40
2018-08-14T18:30:17.118Z,25.30
2018-08-14T18:32:58.804Z,25.20
2018-08-14T18:35:34.340Z,25.30
2018-08-14T18:37:40.294Z,25.10
2018-08-14T18:40:15.660Z,25.00
2018-08-14T18:42:33.320Z,25.00
2018-08-14T18:44:41.745Z,25.10
2018-08-14T18:46:58.273Z,24.90
2018-08-14T18:49:27.259Z,24.70
2018-08-14T18:51:44.002Z,24.60
2018-08-14T18:54:05.061Z,24.70
2018-08-14T18:56:21.287Z,24.60
2018-08-14T18:58:49.919Z,24.60
2018-08-14T19:01:08.480Z,24.50
2018-08-14T19:06:37.271Z,24.40
2018-08-14T19:08:53.233Z,24.40
2018-08-14T19:11:18.896Z,24.40
2018-08-14T19:13:30.010Z,24.40
2018-08-14T19:15:46.488Z,24.40
2018-08-14T19:18:21.493Z,24.20
2018-08-14T19:20:41.340Z,24.30
2018-08-14T19:23:06.793Z,24.30
2018-08-14T19:25:33.111Z,24.20
2018-08-14T19:27:47.609Z,24.30
2018-08-14T19:30:04.139Z,24.20
2018-08-14T19:32:26.114Z,24.10
2018-08-14T19:34:51.310Z,24.20
2018-08-14T19:37:03.825Z,24.20
2018-08-14T19:39:13.769Z,24.20
2018-08-14T19:41:28.716Z,24.20
2018-08-14T19:43:36.530Z,24.20
2018-08-14T19:45:58.468Z,24.10
2018-08-14T19:48:29.194Z,24.20
2018-08-14T19:50:58.978Z,24.00
2018-08-14T19:53:08.060Z,23.90
2018-08-14T19:55:36.644Z,24.00
2018-08-14T19:58:03.580Z,24.00
2018-08-14T20:00:37.954Z,23.80
2018-08-14T20:03:07.550Z,23.80
2018-08-14T20:05:36.085Z,23.80
2018-08-14T20:07:52.590Z,23.80
2018-08-14T20:10:11.768Z,23.80
2018-08-14T20:12:37.553Z,23.80
2018-08-14T20:14:51.368Z,23.70
2018-08-14T20:17:29.230Z,23.60
2018-08-14T20:19:57.152Z,23.40
2018-08-14T20:22:26.846Z,23.50
2018-08-14T20:24:44.421Z,23.40
2018-08-14T20:29:33.520Z,23.50
2018-08-14T20:32:09.426Z,23.50
2018-08-14T20:34:37.880Z,23.50
2018-08-14T20:36:53.487Z,23.60
2018-08-14T20:39:15.519Z,23.40
2018-08-14T20:41:44.273Z,23.40
2018-08-14T20:44:14.679Z,23.40
2018-08-14T20:46:50.610Z,23.30
2018-08-14T20:49:24.344Z,23.30
2018-08-14T20:52:02.254Z,23.20
2018-08-14T20:54:28.220Z,23.20
2018-08-14T20:56:37.476Z,23.20
2018-08-14T20:58:56.164Z,23.20
2018-08-14T21:01:20.062Z,23.20
2018-08-14T21:03:50.129Z,23.00
2018-08-14T21:05:56.529Z,23.00
2018-08-14T21:08:16.425Z,23.10
2018-08-14T21:10:22.497Z,23.20
2018-08-14T21:12:40.381Z,23.20
2018-08-14T21:15:14.687Z,23.20
2018-08-14T21:17:23.319Z,23.20
2018-08-14T21:19:52.090Z,23.10
2018-08-14T21:22:21.341Z,23.10
2018-08-14T21:24:41.569Z,23.10
2018-08-14T21:27:00.274Z,23.00
2018-08-14T21:29:23.239Z,23.10
2018-08-14T21:31:41.055Z,23.10
2018-08-14T21:34:01.305Z,23.10
2018-08-14T21:36:19.899Z,23.10
2018-08-14T21:38:39.889Z,23.20
2018-08-14T21:40:47.658Z,23.00
2018-08-14T21:43:04.523Z,22.80
2018-08-14T21:45:38.406Z,22.80
2018-08-14T21:47:49.340Z,22.90
2018-08-14T21:50:00.912Z,23.10
2018-08-14T21:52:23.044Z,23.20
2018-08-14T21:54:51.013Z,23.20
2018-08-14T21:57:02.344Z,23.20
2018-08-14T21:59:15.514Z,23.10
2018-08-14T22:01:20.184Z,23.20
2018-08-14T22:03:45.420Z,23.10
2018-08-14T22:06:05.681Z,23.20
2018-08-14T22:08:36.878Z,23.10
2018-08-14T22:10:44.742Z,23.20
2018-08-14T22:13:05.223Z,23.10
2018-08-14T22:15:25.386Z,23.00
2018-08-14T22:18:03.839Z,23.00
2018-08-14T22:20:25.879Z,23.00
2018-08-14T22:22:40.792Z,23.00
2018-08-14T22:24:50.436Z,23.00
2018-08-14T22:27:05.613Z,23.10
2018-08-14T22:29:24.307Z,23.10
2018-08-14T22:31:52.540Z,22.90
2018-08-14T22:33:57.455Z,22.70
2018-08-14T22:36:17.422Z,22.70
2018-08-14T22:38:43.743Z,22.70
2018-08-14T22:40:51.645Z,22.70
2018-08-14T22:43:04.023Z,22.70
2018-08-14T22:45:15.381Z,22.70
2018-08-14T22:47:22.635Z,22.70
2018-08-14T22:49:42.286Z,22.70
2018-08-14T22:51:58.000Z,22.70
2018-08-14T22:54:16.778Z,22.60
2018-08-14T22:56:34.854Z,22.70
2018-08-14T22:58:40.491Z,22.70
2018-08-14T23:00:44.605Z,22.60
2018-08-14T23:02:56.727Z,22.60
2018-08-14T23:05:20.040Z,22.60
2018-08-14T23:07:32.202Z,22.60
2018-08-14T23:09:40.445Z,22.50
2018-08-14T23:11:59.755Z,22.60
2018-08-14T23:14:25.202Z,22.70
2018-08-14T23:16:39.794Z,22.80
2018-08-14T23:19:00.594Z,22.80
2018-08-14T23:21:05.472Z,22.90
2018-08-14T23:23:34.629Z,22.80
2018-08-14T23:25:42.009Z,22.90
2018-08-14T23:28:01.179Z,22.90
2018-08-14T23:30:23.164Z,22.80
2018-08-14T23:32:31.611Z,22.70
2018-08-14T23:34:38.783Z,22.60
2018-08-14T23:36:43.484Z,22.30
2018-08-14T23:39:03.940Z,22.20
2018-08-14T23:41:22.597Z,22.20
2018-08-14T23:43:41.673Z,22.10
2018-08-14T23:45:50.242Z,22.00
2018-08-14T23:48:03.745Z,21.80
2018-08-14T23:50:23.369Z,21.80
2018-08-14T23:52:27.553Z,21.70
2018-08-14T23:54:45.378Z,21.70
2018-08-14T23:56:49.254Z,21.70
2018-08-14T23:58:57.321Z,21.70
